createdAt,value
2023-04-16T00:01:39.487Z,94673.78
2023-04-16T00:04:09.052Z,94663.84
2023-04-16T00:06:36.834Z,94662.56
2023-04-16T00:09:04.647Z,94667.97
2023-04-16T00:11:32.255Z,94659.28
2023-04-16T00:13:59.947Z,94661.56
2023-04-16T00:16:27.592Z,94662.81
2023-04-16T00:18:55.261Z,94667.56
2023-04-16T00:21:24.291Z,94665.88
2023-04-16T00:23:51.911Z,94669.63
2023-04-16T00:26:19.537Z,94675.84
2023-04-16T00:28:47.144Z,94675.22
2023-04-16T00:31:14.863Z,94670.22
2023-04-16T00:33:42.615Z,94665.44
2023-04-16T00:36:10.675Z,94670.06
2023-04-16T00:38:39.670Z,94665.69
2023-04-16T00:41:07.328Z,94662.34
2023-04-16T00:43:34.967Z,94668.81
2023-04-16T00:46:06.620Z,94671.25
2023-04-16T00:48:34.674Z,94666.28
2023-04-16T00:51:02.356Z,94674.38
2023-04-16T00:53:30.511Z,94671.88
2023-04-16T00:55:59.894Z,94676.91
2023-04-16T00:58:27.737Z,94679.13
2023-04-16T01:00:56.425Z,94674.19
2023-04-16T01:03:24.398Z,94671.03
2023-04-16T01:05:52.369Z,94674.59
2023-04-16T01:08:21.454Z,94666.72
2023-04-16T01:10:49.145Z,94668.00
2023-04-16T01:13:18.199Z,94673.78
2023-04-16T01:15:45.927Z,94669.03
2023-04-16T01:18:16.878Z,94671.25
2023-04-16T01:20:46.000Z,94665.25
2023-04-16T01:23:13.851Z,94672.09
2023-04-16T01:25:41.571Z,94667.31
2023-04-16T01:28:09.283Z,94664.63
2023-04-16T01:30:36.933Z,94675.41
2023-04-16T01:33:04.687Z,94670.00
2023-04-16T01:35:32.403Z,94667.75
2023-04-16T01:38:01.612Z,94672.09
2023-04-16T01:40:29.339Z,94665.06
2023-04-16T01:42:57.033Z,94674.00
2023-04-16T01:45:24.687Z,94666.31
2023-04-16T01:47:52.454Z,94672.53
2023-04-16T01:50:20.534Z,94679.16
2023-04-16T01:52:48.308Z,94672.53
2023-04-16T01:55:17.381Z,94677.50
2023-04-16T01:57:45.002Z,94676.03
2023-04-16T02:00:13.010Z,94681.22
2023-04-16T02:02:41.047Z,94682.28
2023-04-16T02:05:09.154Z,94679.38
2023-04-16T02:07:36.779Z,94678.34
2023-04-16T02:10:05.344Z,94675.44
2023-04-16T02:12:34.332Z,94683.31
2023-04-16T02:15:02.004Z,94682.88
2023-04-16T02:17:29.713Z,94684.16
2023-04-16T02:19:57.440Z,94690.81
2023-04-16T02:22:25.110Z,94684.97
2023-04-16T02:24:52.838Z,94693.25
2023-04-16T02:27:20.529Z,94693.69
2023-04-16T02:29:49.537Z,94686.19
2023-04-16T02:32:17.261Z,94689.31
2023-04-16T02:34:44.935Z,94683.31
2023-04-16T02:37:12.626Z,94682.69
2023-04-16T02:39:40.259Z,94689.13
2023-04-16T02:42:07.919Z,94690.59
2023-04-16T02:44:35.636Z,94683.75
2023-04-16T02:47:04.607Z,94686.00
2023-04-16T02:49:32.275Z,94685.84
2023-04-16T02:51:59.915Z,94696.63
2023-04-16T02:54:27.582Z,94690.59
2023-04-16T02:56:55.179Z,94695.13
2023-04-16T02:59:22.837Z,94689.75
2023-04-16T03:01:50.515Z,94692.03
2023-04-16T03:04:19.639Z,94685.41
2023-04-16T03:06:47.345Z,94692.88
2023-04-16T03:09:15.069Z,94684.78
2023-04-16T03:11:42.677Z,94683.34
2023-04-16T03:14:10.500Z,94686.91
2023-04-16T03:16:38.152Z,94696.66
2023-04-16T03:19:05.800Z,94693.56
2023-04-16T03:21:34.752Z,94704.34
2023-04-16T03:24:02.432Z,94696.25
2023-04-16T03:26:30.083Z,94700.59
2023-04-16T03:28:57.729Z,94710.34
2023-04-16T03:31:25.450Z,94714.25
2023-04-16T03:33:53.102Z,94712.78
2023-04-16T03:36:20.899Z,94711.72
2023-04-16T03:38:49.947Z,94708.44
2023-04-16T03:41:17.622Z,94710.69
2023-04-16T03:43:45.330Z,94719.00
2023-04-16T03:46:13.048Z,94715.50
2023-04-16T03:48:40.701Z,94714.47
2023-04-16T03:51:08.334Z,94712.81
2023-04-16T03:53:36.004Z,94717.59
2023-04-16T03:56:05.487Z,94710.94
2023-04-16T03:58:33.172Z,94718.44
2023-04-16T04:01:00.818Z,94724.03
2023-04-16T04:03:28.682Z,94724.84
2023-04-16T04:05:56.595Z,94724.84
2023-04-16T04:08:24.200Z,94725.72
2023-04-16T04:10:51.884Z,94726.16
2023-04-16T04:13:21.026Z,94733.34
2023-04-16T04:15:48.681Z,94734.41
2023-04-16T04:18:16.348Z,94733.34
2023-04-16T04:20:44.002Z,94732.31
2023-04-16T04:23:11.626Z,94740.22
2023-04-16T04:25:39.291Z,94732.56
2023-04-16T04:28:06.950Z,94734.63
2023-04-16T04:30:36.729Z,94731.53
2023-04-16T04:33:04.602Z,94743.97
2023-04-16T04:35:32.273Z,94744.81
2023-04-16T04:37:59.957Z,94739.03
2023-04-16T04:40:27.607Z,94742.31
2023-04-16T04:42:55.191Z,94748.16
2023-04-16T04:45:25.401Z,94753.97
2023-04-16T04:47:54.565Z,94749.84
2023-04-16T04:50:22.281Z,94758.56
2023-04-16T04:52:49.936Z,94762.66
2023-04-16T04:55:17.647Z,94762.88
2023-04-16T04:57:45.237Z,94761.88
2023-04-16T05:00:13.358Z,94760.19
2023-04-16T05:02:41.093Z,94763.97
2023-04-16T05:05:10.749Z,94772.66
2023-04-16T05:07:38.409Z,94771.84
2023-04-16T05:10:06.814Z,94771.84
2023-04-16T05:12:34.439Z,94771.44
2023-04-16T05:15:02.007Z,94775.16
2023-04-16T05:17:29.663Z,94771.63
2023-04-16T05:19:57.305Z,94773.47
2023-04-16T05:22:26.293Z,94780.94
2023-04-16T05:24:53.973Z,94781.97
2023-04-16T05:27:21.543Z,94778.66
2023-04-16T05:29:49.205Z,94786.31
2023-04-16T05:32:16.868Z,94779.06
2023-04-16T05:34:44.562Z,94781.75
2023-04-16T05:37:12.186Z,94789.44
2023-04-16T05:39:41.162Z,94789.41
2023-04-16T05:42:08.932Z,94782.19
2023-04-16T05:44:36.603Z,94781.94
2023-04-16T05:47:04.219Z,94790.91
2023-04-16T05:49:31.865Z,94797.72
2023-04-16T05:51:59.613Z,94787.81
2023-04-16T05:54:27.204Z,94790.91
2023-04-16T05:56:56.459Z,94783.41
2023-04-16T05:59:24.182Z,94794.22
2023-04-16T06:01:51.867Z,94799.81
2023-04-16T06:04:19.853Z,94802.09
2023-04-16T06:06:47.702Z,94796.09
2023-04-16T06:09:15.396Z,94792.31
2023-04-16T06:11:43.003Z,94797.09
2023-04-16T06:14:12.078Z,94796.66
2023-04-16T06:16:39.740Z,94798.09
2023-04-16T06:19:07.481Z,94803.25
2023-04-16T06:21:35.568Z,94805.72
2023-04-16T06:24:03.270Z,94803.03
2023-04-16T06:26:30.997Z,94809.47
2023-04-16T06:28:58.660Z,94808.63
2023-04-16T06:31:27.971Z,94811.94
2023-04-16T06:33:55.779Z,94804.06
2023-04-16T06:36:23.494Z,94812.13
2023-04-16T06:38:51.228Z,94813.97
2023-04-16T06:41:18.836Z,94815.00
2023-04-16T06:43:46.726Z,94819.97
2023-04-16T06:46:14.487Z,94813.94
2023-04-16T06:48:43.574Z,94817.09
2023-04-16T06:51:11.666Z,94819.78
2023-04-16T06:53:39.364Z,94825.94
2023-04-16T06:56:07.794Z,94819.28
2023-04-16T06:58:35.466Z,94819.47
2023-04-16T07:01:03.696Z,94825.09
2023-04-16T07:03:32.267Z,94824.22
2023-04-16T07:06:01.530Z,94825.69
2023-04-16T07:08:29.230Z,94826.66
2023-04-16T07:10:56.871Z,94831.03
2023-04-16T07:13:24.548Z,94830.13
2023-04-16T07:15:52.161Z,94832.84
2023-04-16T07:18:20.810Z,94826.16
2023-04-16T07:20:48.917Z,94832.00
2023-04-16T07:23:18.001Z,94840.09
2023-04-16T07:25:46.075Z,94830.91
2023-04-16T07:28:13.737Z,94831.09
2023-04-16T07:30:41.368Z,94830.66
2023-04-16T07:33:09.073Z,94828.97
2023-04-16T07:35:36.810Z,94833.53
2023-04-16T07:38:04.441Z,94836.97
2023-04-16T07:40:33.963Z,94827.34
2023-04-16T07:43:01.543Z,94838.81
2023-04-16T07:45:29.157Z,94843.16
2023-04-16T07:47:56.869Z,94841.72
2023-04-16T07:50:24.575Z,94842.28
2023-04-16T07:52:52.143Z,94849.47
2023-04-16T07:55:19.815Z,94840.47
2023-04-16T07:57:48.792Z,94847.59
2023-04-16T08:00:16.769Z,94849.97
2023-04-16T08:02:45.035Z,94845.81
2023-04-16T08:05:13.136Z,94847.31
2023-04-16T08:07:40.917Z,94849.38
2023-04-16T08:10:09.781Z,94853.63
2023-04-16T08:12:37.377Z,94859.63
2023-04-16T08:15:07.706Z,94860.38
2023-04-16T08:17:35.417Z,94859.31
2023-04-16T08:20:03.293Z,94865.19
2023-04-16T08:22:30.886Z,94868.09
2023-04-16T08:24:58.663Z,94865.78
2023-04-16T08:27:26.264Z,94867.41
2023-04-16T08:29:53.906Z,94868.38
2023-04-16T08:32:22.903Z,94884.00
2023-04-16T08:34:50.816Z,94883.19
2023-04-16T08:37:18.420Z,94885.63
2023-04-16T08:39:46.108Z,94889.56
2023-04-16T08:42:15.730Z,94894.69
2023-04-16T08:44:46.937Z,94889.19
2023-04-16T08:47:16.835Z,94892.41
2023-04-16T08:49:46.404Z,94899.69
2023-04-16T08:52:17.654Z,94895.13
2023-04-16T08:54:56.732Z,94901.28
2023-04-16T08:57:25.413Z,94896.69
2023-04-16T08:59:52.988Z,94900.25
2023-04-16T09:02:20.783Z,94899.81
2023-04-16T09:04:51.247Z,94903.00
2023-04-16T09:07:20.697Z,94900.22
2023-04-16T09:09:49.823Z,94901.94
2023-04-16T09:12:18.319Z,94904.88
2023-04-16T09:14:48.795Z,94901.78
2023-04-16T09:17:18.880Z,94907.06
2023-04-16T09:19:46.772Z,94913.84
2023-04-16T09:22:17.121Z,94900.16
2023-04-16T09:24:44.760Z,94912.09
2023-04-16T09:27:13.106Z,94906.38
2023-04-16T09:29:41.930Z,94908.84
2023-04-16T09:32:10.617Z,94908.56
2023-04-16T09:34:57.451Z,94913.16
2023-04-16T09:37:27.378Z,94904.34
2023-04-16T09:39:57.230Z,94916.22
2023-04-16T09:42:27.397Z,94913.53
2023-04-16T09:44:57.872Z,94914.13
2023-04-16T09:47:28.259Z,94911.25
2023-04-16T09:50:00.145Z,94915.31
2023-04-16T09:52:29.176Z,94913.59
2023-04-16T09:54:56.953Z,94917.66
2023-04-16T09:57:26.197Z,94914.63
2023-04-16T09:59:54.530Z,94917.31
2023-04-16T10:02:23.708Z,94917.56
2023-04-16T10:04:52.663Z,94927.09
2023-04-16T10:07:21.040Z,94925.16
2023-04-16T10:09:50.665Z,94926.28
2023-04-16T10:12:18.263Z,94924.66
2023-04-16T10:14:47.334Z,94928.13
2023-04-16T10:17:17.450Z,94931.94
2023-04-16T10:19:45.638Z,94933.25
2023-04-16T10:22:13.763Z,94921.22
2023-04-16T10:24:42.292Z,94932.75
2023-04-16T10:27:11.432Z,94926.69
2023-04-16T10:29:39.327Z,94931.69
2023-04-16T10:32:07.826Z,94933.63
2023-04-16T10:34:36.471Z,94935.97
2023-04-16T10:37:04.610Z,94936.56
2023-04-16T10:39:34.380Z,94939.97
2023-04-16T10:42:08.645Z,94942.00
2023-04-16T10:44:37.738Z,94931.88
2023-04-16T10:47:12.144Z,94936.41
2023-04-16T10:49:39.928Z,94936.41
2023-04-16T10:52:12.502Z,94927.13
2023-04-16T10:54:40.782Z,94925.56
2023-04-16T10:57:12.626Z,94925.81
2023-04-16T10:59:43.723Z,94934.69
2023-04-16T11:02:14.393Z,94934.34
2023-04-16T11:04:44.237Z,94938.38
2023-04-16T11:07:20.103Z,94934.97
2023-04-16T11:09:59.364Z,94932.25
2023-04-16T11:12:29.026Z,94934.69
2023-04-16T11:15:00.464Z,94939.53
2023-04-16T11:17:30.526Z,94936.00
2023-04-16T11:19:58.259Z,94928.75
2023-04-16T11:22:26.360Z,94934.56
2023-04-16T11:24:56.098Z,94944.38
2023-04-16T11:27:23.925Z,94941.50
2023-04-16T11:30:00.086Z,94940.91
2023-04-16T11:32:27.861Z,94945.13
2023-04-16T11:34:55.742Z,94947.16
2023-04-16T11:37:33.313Z,94942.88
2023-04-16T11:40:01.382Z,94949.13
2023-04-16T11:42:29.433Z,94948.06
2023-04-16T11:45:00.506Z,94956.53
2023-04-16T11:47:28.651Z,94951.22
2023-04-16T11:49:56.465Z,94952.09
2023-04-16T11:52:28.351Z,94951.13
2023-04-16T11:54:56.194Z,94949.50
2023-04-16T11:57:28.376Z,94953.34
2023-04-16T12:00:02.297Z,94955.03
2023-04-16T12:02:39.958Z,94953.47
2023-04-16T12:05:09.607Z,94952.44
2023-04-16T12:07:46.649Z,94953.94
2023-04-16T12:10:14.595Z,94958.44
2023-04-16T12:12:42.287Z,94957.88
2023-04-16T12:15:13.833Z,94958.69
2023-04-16T12:17:42.848Z,94956.78
2023-04-16T12:20:11.805Z,94952.78
2023-04-16T12:22:40.559Z,94958.56
2023-04-16T12:25:09.505Z,94952.41
2023-04-16T12:27:45.533Z,94955.94
2023-04-16T12:30:14.106Z,94959.69
2023-04-16T12:32:44.083Z,94953.38
2023-04-16T12:35:12.637Z,94957.69
2023-04-16T12:37:40.723Z,94958.66
2023-04-16T12:40:11.738Z,94957.69
2023-04-16T12:42:39.379Z,94958.25
2023-04-16T12:45:08.124Z,94962.16
2023-04-16T12:47:36.038Z,94963.06
2023-04-16T12:50:05.841Z,94963.53
2023-04-16T12:52:33.518Z,94960.59
2023-04-16T12:55:02.821Z,94961.13
2023-04-16T12:57:30.450Z,94956.22
2023-04-16T12:59:58.656Z,94958.47
2023-04-16T13:02:26.624Z,94960.28
2023-04-16T13:04:54.969Z,94959.84
2023-04-16T13:07:24.221Z,94961.88
2023-04-16T13:09:51.845Z,94960.75
2023-04-16T13:12:19.613Z,94958.09
2023-04-16T13:14:47.277Z,94960.59
2023-04-16T13:17:15.081Z,94955.25
2023-04-16T13:19:42.712Z,94954.34
2023-04-16T13:22:10.510Z,94953.81
2023-04-16T13:24:39.560Z,94947.44
2023-04-16T13:27:08.470Z,94953.81
2023-04-16T13:29:37.026Z,94953.44
2023-04-16T13:32:05.406Z,94960.44
2023-04-16T13:34:33.953Z,94958.81
2023-04-16T13:37:01.601Z,94952.31
2023-04-16T13:39:29.360Z,94959.84
2023-04-16T13:41:58.373Z,94956.91
2023-04-16T13:44:26.067Z,94953.69
2023-04-16T13:46:54.052Z,94959.13
2023-04-16T13:49:22.660Z,94960.91
2023-04-16T13:51:50.625Z,94960.22
2023-04-16T13:54:18.351Z,94957.59
2023-04-16T13:56:46.016Z,94964.00
2023-04-16T13:59:15.669Z,94964.75
2023-04-16T14:01:43.416Z,94961.66
2023-04-16T14:04:11.623Z,94968.28
2023-04-16T14:06:39.276Z,94957.53
2023-04-16T14:09:09.736Z,94955.03
2023-04-16T14:11:37.912Z,94956.63
2023-04-16T14:14:06.071Z,94953.19
2023-04-16T14:16:36.385Z,94955.19
2023-04-16T14:19:04.192Z,94956.47
2023-04-16T14:21:32.204Z,94962.25
2023-04-16T14:24:00.032Z,94958.66
2023-04-16T14:26:27.973Z,94961.75
2023-04-16T14:28:55.626Z,94956.09
2023-04-16T14:31:23.423Z,94964.44
2023-04-16T14:33:52.450Z,94957.75
2023-04-16T14:36:21.841Z,94961.31
2023-04-16T14:38:49.531Z,94967.53
2023-04-16T14:41:17.225Z,94962.41
2023-04-16T14:43:46.982Z,94966.94
2023-04-16T14:46:17.864Z,94969.00
2023-04-16T14:48:46.043Z,94966.31
2023-04-16T14:51:15.090Z,94961.53
2023-04-16T14:53:42.832Z,94967.53
2023-04-16T14:56:13.017Z,94970.91
2023-04-16T14:58:42.884Z,94966.16
2023-04-16T15:01:10.812Z,94957.00
2023-04-16T15:03:38.705Z,94962.78
2023-04-16T15:06:07.103Z,94962.84
2023-04-16T15:08:37.725Z,94967.44
2023-04-16T15:11:06.029Z,94964.09
2023-04-16T15:13:34.597Z,94969.16
2023-04-16T15:16:02.871Z,94969.59
2023-04-16T15:18:30.602Z,94968.09
2023-04-16T15:20:58.366Z,94967.22
2023-04-16T15:23:26.713Z,94969.00
2023-04-16T15:25:55.748Z,94961.53
2023-04-16T15:28:23.396Z,94968.25
2023-04-16T15:30:53.044Z,94974.66
2023-04-16T15:33:21.763Z,94972.16
2023-04-16T15:35:51.582Z,94972.00
2023-04-16T15:38:21.054Z,94979.09
2023-04-16T15:40:52.257Z,94969.78
2023-04-16T15:43:21.250Z,94976.22
2023-04-16T15:45:49.062Z,94979.97
2023-04-16T15:48:19.245Z,94982.22
2023-04-16T15:50:48.174Z,94978.34
2023-04-16T15:53:19.617Z,94985.00
2023-04-16T15:55:47.327Z,94982.50
2023-04-16T15:58:14.983Z,94979.50
2023-04-16T16:00:46.611Z,94984.31
2023-04-16T16:03:14.498Z,94991.34
2023-04-16T16:05:42.273Z,94990.75
2023-04-16T16:08:09.952Z,94976.03
2023-04-16T16:10:37.621Z,94987.06
2023-04-16T16:13:07.947Z,94990.59
2023-04-16T16:15:35.809Z,94986.84
2023-04-16T16:18:05.361Z,94992.41
2023-04-16T16:20:33.159Z,94994.75
2023-04-16T16:23:01.227Z,94992.25
2023-04-16T16:25:30.513Z,94995.56
2023-04-16T16:27:58.905Z,94993.47
2023-04-16T16:30:35.818Z,94996.53
2023-04-16T16:33:04.962Z,94993.41
2023-04-16T16:35:32.656Z,94996.50
2023-04-16T16:38:01.696Z,94995.81
2023-04-16T16:40:29.476Z,94999.75
2023-04-16T16:42:57.157Z,95001.63
2023-04-16T16:45:26.022Z,95001.19
2023-04-16T16:47:53.814Z,95007.03
2023-04-16T16:50:22.927Z,94998.31
2023-04-16T16:52:50.529Z,94998.91
2023-04-16T16:55:18.895Z,94998.69
2023-04-16T16:57:46.684Z,94999.13
2023-04-16T17:00:15.887Z,95006.59
2023-04-16T17:02:43.870Z,94999.59
2023-04-16T17:05:12.549Z,95008.00
2023-04-16T17:07:41.620Z,95016.34
2023-04-16T17:10:11.265Z,95007.59
2023-04-16T17:12:38.911Z,95012.56
2023-04-16T17:15:07.189Z,95015.09
2023-04-16T17:17:34.925Z,95022.19
2023-04-16T17:20:08.091Z,95020.50
2023-04-16T17:22:35.852Z,95019.75
2023-04-16T17:25:06.984Z,95023.22
2023-04-16T17:27:34.691Z,95022.84
2023-04-16T17:30:02.671Z,95022.19
2023-04-16T17:32:32.524Z,95030.91
2023-04-16T17:35:00.829Z,95019.66
2023-04-16T17:37:28.650Z,95016.78
2023-04-16T17:39:56.406Z,95022.19
2023-04-16T17:42:25.570Z,95014.66
2023-04-16T17:44:53.221Z,95022.78
2023-04-16T17:47:22.054Z,95017.97
2023-04-16T17:49:49.676Z,95017.75
2023-04-16T17:52:17.268Z,95014.44
2023-04-16T17:54:44.889Z,95019.47
2023-04-16T17:57:12.505Z,95036.31
2023-04-16T17:59:42.670Z,95026.09
2023-04-16T18:02:10.564Z,95030.69
2023-04-16T18:04:38.615Z,95028.56
2023-04-16T18:07:06.457Z,95022.56
2023-04-16T18:09:34.057Z,95016.13
2023-04-16T18:12:01.804Z,95021.53
2023-04-16T18:14:29.492Z,95027.75
2023-04-16T18:16:58.948Z,95039.63
2023-04-16T18:19:26.598Z,95041.94
2023-04-16T18:21:54.189Z,95045.78
2023-04-16T18:24:21.795Z,95051.78
2023-04-16T18:26:49.418Z,95053.63
2023-04-16T18:29:17.940Z,95056.13
2023-04-16T18:31:45.867Z,95057.34
2023-04-16T18:34:15.023Z,95056.06
2023-04-16T18:36:42.751Z,95070.44
2023-04-16T18:39:10.473Z,95074.41
2023-04-16T18:41:38.154Z,95068.56
2023-04-16T18:44:05.872Z,95065.84
2023-04-16T18:46:33.546Z,95074.56
2023-04-16T18:49:01.426Z,95077.50
2023-04-16T18:51:30.731Z,95083.75
2023-04-16T18:53:58.446Z,95076.69
2023-04-16T18:56:26.192Z,95090.03
2023-04-16T18:58:53.855Z,95087.34
2023-04-16T19:01:21.654Z,95090.88
2023-04-16T19:03:49.435Z,95095.06
2023-04-16T19:06:17.230Z,95091.28
2023-04-16T19:08:46.269Z,95089.44
2023-04-16T19:11:13.872Z,95095.88
2023-04-16T19:13:41.542Z,95098.38
2023-04-16T19:16:11.581Z,95100.03
2023-04-16T19:18:39.516Z,95104.38
2023-04-16T19:21:07.570Z,95101.69
2023-04-16T19:23:35.663Z,95111.25
2023-04-16T19:26:04.749Z,95108.56
2023-04-16T19:28:32.415Z,95110.41
2023-04-16T19:31:00.134Z,95114.78
2023-04-16T19:33:27.781Z,95115.81
2023-04-16T19:35:55.523Z,95114.56
2023-04-16T19:38:23.220Z,95119.16
2023-04-16T19:40:50.962Z,95119.97
2023-04-16T19:43:19.947Z,95119.19
2023-04-16T19:45:52.364Z,95126.06
2023-04-16T19:48:20.121Z,95119.84
2023-04-16T19:50:47.804Z,95123.41
2023-04-16T19:53:16.846Z,95121.78
2023-04-16T19:55:44.487Z,95124.69
2023-04-16T19:58:12.130Z,95114.13
2023-04-16T20:00:42.083Z,95120.56
2023-04-16T20:03:10.369Z,95123.28
2023-04-16T20:05:38.107Z,95132.63
2023-04-16T20:08:06.229Z,95128.91
2023-04-16T20:10:33.947Z,95129.16
2023-04-16T20:13:01.580Z,95120.00
2023-04-16T20:15:29.266Z,95129.53
2023-04-16T20:17:58.321Z,95126.41
2023-04-16T20:20:25.987Z,95129.50
2023-04-16T20:22:53.628Z,95127.09
2023-04-16T20:25:21.662Z,95127.09
2023-04-16T20:27:49.287Z,95130.81
2023-04-16T20:30:17.125Z,95135.63
2023-04-16T20:32:44.804Z,95130.81
2023-04-16T20:35:13.885Z,95138.94
2023-04-16T20:37:43.012Z,95133.72
2023-04-16T20:40:13.853Z,95133.94
2023-04-16T20:42:45.973Z,95136.47
2023-04-16T20:45:13.473Z,95130.63
2023-04-16T20:47:43.354Z,95127.31
2023-04-16T20:50:13.607Z,95125.06
2023-04-16T20:52:42.314Z,95123.59
2023-04-16T20:55:10.473Z,95140.69
2023-04-16T20:57:38.153Z,95125.13
2023-04-16T21:00:10.093Z,95125.72
2023-04-16T21:02:37.880Z,95130.09
2023-04-16T21:05:08.981Z,95129.44
2023-04-16T21:07:37.929Z,95124.75
2023-04-16T21:10:06.072Z,95120.53
2023-04-16T21:12:33.710Z,95117.06
2023-04-16T21:15:01.478Z,95124.75
2023-04-16T21:17:29.258Z,95120.38
2023-04-16T21:19:56.940Z,95128.69
2023-04-16T21:22:24.715Z,95122.47
2023-04-16T21:24:53.786Z,95121.63
2023-04-16T21:27:21.371Z,95124.78
2023-04-16T21:29:48.984Z,95127.50
2023-04-16T21:32:16.824Z,95123.94
2023-04-16T21:34:44.470Z,95123.34
2023-04-16T21:37:12.157Z,95120.25
2023-04-16T21:39:39.783Z,95124.19
2023-04-16T21:42:10.468Z,95125.88
2023-04-16T21:44:38.948Z,95128.78
2023-04-16T21:47:06.675Z,95121.50
2023-04-16T21:49:34.372Z,95127.56
2023-04-16T21:52:02.348Z,95133.78
2023-04-16T21:54:30.153Z,95140.41
2023-04-16T21:56:58.141Z,95140.63
2023-04-16T21:59:27.254Z,95133.78
2023-04-16T22:01:55.026Z,95129.19
2023-04-16T22:04:26.634Z,95138.34
2023-04-16T22:06:56.260Z,95135.00
2023-04-16T22:09:24.800Z,95134.81
2023-04-16T22:11:52.640Z,95132.97
2023-04-16T22:14:20.563Z,95130.47
2023-04-16T22:16:51.762Z,95125.69
2023-04-16T22:19:19.775Z,95127.59
2023-04-16T22:21:47.815Z,95125.91
2023-04-16T22:24:15.520Z,95124.69
2023-04-16T22:26:43.149Z,95132.16
2023-04-16T22:29:11.211Z,95129.88
2023-04-16T22:31:39.055Z,95130.50
2023-04-16T22:34:08.117Z,95124.25
2023-04-16T22:36:35.778Z,95134.25
2023-04-16T22:39:04.313Z,95125.31
2023-04-16T22:41:31.948Z,95125.53
2023-04-16T22:43:59.600Z,95125.13
2023-04-16T22:46:27.323Z,95125.94
2023-04-16T22:48:55.002Z,95118.66
2023-04-16T22:51:24.399Z,95123.44
2023-04-16T22:53:52.414Z,95126.56
2023-04-16T22:56:20.061Z,95130.09
2023-04-16T22:58:49.211Z,95127.41
2023-04-16T23:01:17.528Z,95129.03
2023-04-16T23:03:45.715Z,95131.53
2023-04-16T23:06:13.443Z,95124.69
2023-04-16T23:08:42.477Z,95128.63
2023-04-16T23:11:10.104Z,95127.78
2023-04-16T23:13:37.809Z,95128.41
2023-04-16T23:16:06.188Z,95124.66
2023-04-16T23:18:33.889Z,95124.84
2023-04-16T23:21:01.553Z,95129.19
2023-04-16T23:23:29.328Z,95117.56
2023-04-16T23:25:58.305Z,95115.47
2023-04-16T23:28:25.945Z,95117.97
2023-04-16T23:30:53.615Z,95116.31
2023-04-16T23:33:21.577Z,95119.84
2023-04-16T23:35:49.198Z,95120.84
2023-04-16T23:38:17.044Z,95124.78
2023-04-16T23:40:44.674Z,95124.38
2023-04-16T23:43:13.634Z,95119.56
2023-04-16T23:45:41.317Z,95118.94
2023-04-16T23:48:08.933Z,95123.69
2023-04-16T23:50:37.017Z,95125.56
2023-04-16T23:53:04.641Z,95118.31
2023-04-16T23:55:32.261Z,95118.72
2023-04-16T23:57:59.923Z,95111.28
